sensor_id;sensor_type;location;lat;lon;timestamp;temperature;humidity
4787;DHT22;62338;48.832;9.422;2022-08-21T00:01:26;15.30;53.30
4787;DHT22;62338;48.832;9.422;2022-08-21T00:03:54;15.30;56.70
4787;DHT22;62338;48.832;9.422;2022-08-21T00:06:23;15.30;53.10
4787;DHT22;62338;48.832;9.422;2022-08-21T00:08:50;15.20;57.30
4787;DHT22;62338;48.832;9.422;2022-08-21T00:11:17;15.20;56.40
4787;DHT22;62338;48.832;9.422;2022-08-21T00:13:43;15.20;52.20
4787;DHT22;62338;48.832;9.422;2022-08-21T00:16:09;15.20;63.00
4787;DHT22;62338;48.832;9.422;2022-08-21T00:18:37;15.10;82.60
4787;DHT22;62338;48.832;9.422;2022-08-21T00:21:03;15.00;80.80
4787;DHT22;62338;48.832;9.422;2022-08-21T00:23:29;15.00;80.70
4787;DHT22;62338;48.832;9.422;2022-08-21T00:25:55;14.90;90.20
4787;DHT22;62338;48.832;9.422;2022-08-21T00:28:21;14.80;88.70
4787;DHT22;62338;48.832;9.422;2022-08-21T00:30:47;14.80;91.00
4787;DHT22;62338;48.832;9.422;2022-08-21T00:33:13;14.80;85.60
4787;DHT22;62338;48.832;9.422;2022-08-21T00:35:41;14.80;78.10
4787;DHT22;62338;48.832;9.422;2022-08-21T00:38:09;14.80;71.80
4787;DHT22;62338;48.832;9.422;2022-08-21T00:40:46;14.80;67.70
4787;DHT22;62338;48.832;9.422;2022-08-21T00:43:15;14.90;71.70
4787;DHT22;62338;48.832;9.422;2022-08-21T00:45:41;14.90;73.90
4787;DHT22;62338;48.832;9.422;2022-08-21T00:48:07;14.90;74.90
4787;DHT22;62338;48.832;9.422;2022-08-21T00:50:36;14.80;80.10
4787;DHT22;62338;48.832;9.422;2022-08-21T00:53:06;14.80;75.90
4787;DHT22;62338;48.832;9.422;2022-08-21T00:55:34;14.80;77.30
4787;DHT22;62338;48.832;9.422;2022-08-21T00:58:02;14.70;87.40
4787;DHT22;62338;48.832;9.422;2022-08-21T01:00:32;14.70;88.20
4787;DHT22;62338;48.832;9.422;2022-08-21T01:03:00;14.70;89.70
4787;DHT22;62338;48.832;9.422;2022-08-21T01:05:26;14.70;92.10
4787;DHT22;62338;48.832;9.422;2022-08-21T01:07:53;14.60;90.10
4787;DHT22;62338;48.832;9.422;2022-08-21T01:10:19;14.60;90.60
4787;DHT22;62338;48.832;9.422;2022-08-21T01:12:46;14.60;94.20
4787;DHT22;62338;48.832;9.422;2022-08-21T01:15:13;14.50;94.90
4787;DHT22;62338;48.832;9.422;2022-08-21T01:17:40;14.40;99.90
4787;DHT22;62338;48.832;9.422;2022-08-21T01:20:08;14.40;99.90
4787;DHT22;62338;48.832;9.422;2022-08-21T01:22:35;14.30;99.90
4787;DHT22;62338;48.832;9.422;2022-08-21T01:25:05;14.30;99.90
4787;DHT22;62338;48.832;9.422;2022-08-21T01:27:31;14.20;99.90
4787;DHT22;62338;48.832;9.422;2022-08-21T01:30:07;14.20;99.90
4787;DHT22;62338;48.832;9.422;2022-08-21T01:32:34;14.10;99.90
4787;DHT22;62338;48.832;9.422;2022-08-21T01:35:00;14.10;99.90
4787;DHT22;62338;48.832;9.422;2022-08-21T01:37:26;14.10;99.90
4787;DHT22;62338;48.832;9.422;2022-08-21T01:39:52;14.10;99.90
4787;DHT22;62338;48.832;9.422;2022-08-21T01:42:19;14.10;99.90
4787;DHT22;62338;48.832;9.422;2022-08-21T01:44:45;14.10;99.90
4787;DHT22;62338;48.832;9.422;2022-08-21T01:47:13;14.10;99.90
4787;DHT22;62338;48.832;9.422;2022-08-21T01:49:39;14.00;99.90
4787;DHT22;62338;48.832;9.422;2022-08-21T01:52:06;14.10;99.90
4787;DHT22;62338;48.832;9.422;2022-08-21T01:54:32;14.00;99.90
4787;DHT22;62338;48.832;9.422;2022-08-21T01:56:59;14.00;99.90
4787;DHT22;62338;48.832;9.422;2022-08-21T01:59:26;14.00;99.90
4787;DHT22;62338;48.832;9.422;2022-08-21T02:01:52;14.00;99.90
4787;DHT22;62338;48.832;9.422;2022-08-21T06:00:14;15.60;65.90
4787;DHT22;62338;48.832;9.422;2022-08-21T06:02:18;15.70;57.80
4787;DHT22;62338;48.832;9.422;2022-08-21T06:04:20;15.80;69.20
4787;DHT22;62338;48.832;9.422;2022-08-21T06:06:22;15.90;59.90
4787;DHT22;62338;48.832;9.422;2022-08-21T06:08:24;15.90;58.00
4787;DHT22;62338;48.832;9.422;2022-08-21T06:10:26;16.00;60.20
4787;DHT22;62338;48.832;9.422;2022-08-21T06:12:28;16.10;53.00
4787;DHT22;62338;48.832;9.422;2022-08-21T06:14:30;16.10;59.30
4787;DHT22;62338;48.832;9.422;2022-08-21T06:16:32;16.20;36.80
4787;DHT22;62338;48.832;9.422;2022-08-21T06:18:35;16.30;45.30
4787;DHT22;62338;48.832;9.422;2022-08-21T06:20:37;16.30;35.40
4787;DHT22;62338;48.832;9.422;2022-08-21T06:22:39;16.40;32.70
4787;DHT22;62338;48.832;9.422;2022-08-21T06:24:41;16.50;19.50
4787;DHT22;62338;48.832;9.422;2022-08-21T06:26:43;16.50;23.60
4787;DHT22;62338;48.832;9.422;2022-08-21T06:28:45;16.60;20.20
4787;DHT22;62338;48.832;9.422;2022-08-21T06:30:47;16.60;23.10
4787;DHT22;62338;48.832;9.422;2022-08-21T06:32:49;16.70;12.00
4787;DHT22;62338;48.832;9.422;2022-08-21T06:34:50;16.80;21.00
4787;DHT22;62338;48.832;9.422;2022-08-21T06:36:52;16.90;14.90
4787;DHT22;62338;48.832;9.422;2022-08-21T06:38:57;17.00;21.80
4787;DHT22;62338;48.832;9.422;2022-08-21T06:40:59;17.10;4.50
4787;DHT22;62338;48.832;9.422;2022-08-21T06:43:11;17.30;1.00
4787;DHT22;62338;48.832;9.422;2022-08-21T06:45:15;17.40;1.00
4787;DHT22;62338;48.832;9.422;2022-08-21T06:47:17;17.70;1.00
4787;DHT22;62338;48.832;9.422;2022-08-21T06:49:19;17.90;1.00
4787;DHT22;62338;48.832;9.422;2022-08-21T06:51:23;18.80;1.00
4787;DHT22;62338;48.832;9.422;2022-08-21T06:53:25;20.00;1.00
4787;DHT22;62338;48.832;9.422;2022-08-21T06:55:27;21.40;99.90
4787;DHT22;62338;48.832;9.422;2022-08-21T06:57:29;22.60;1.00
4787;DHT22;62338;48.832;9.422;2022-08-21T06:59:32;23.80;1.00
4787;DHT22;62338;48.832;9.422;2022-08-21T07:01:34;24.70;1.00
4787;DHT22;62338;48.832;9.422;2022-08-21T07:03:38;25.50;99.90
4787;DHT22;62338;48.832;9.422;2022-08-21T07:05:40;26.20;1.00
4787;DHT22;62338;48.832;9.422;2022-08-21T07:07:42;26.70;99.90
4787;DHT22;62338;48.832;9.422;2022-08-21T07:09:44;27.00;99.90
4787;DHT22;62338;48.832;9.422;2022-08-21T07:11:50;27.30;99.90
4787;DHT22;62338;48.832;9.422;2022-08-21T07:13:52;27.40;99.90
4787;DHT22;62338;48.832;9.422;2022-08-21T07:15:55;27.70;99.90
4787;DHT22;62338;48.832;9.422;2022-08-21T07:18:04;28.00;99.90
4787;DHT22;62338;48.832;9.422;2022-08-21T07:20:06;28.10;99.90
4787;DHT22;62338;48.832;9.422;2022-08-21T07:22:08;28.60;99.90
4787;DHT22;62338;48.832;9.422;2022-08-21T07:24:10;29.10;99.90
4787;DHT22;62338;48.832;9.422;2022-08-21T07:26:14;28.50;99.90
4787;DHT22;62338;48.832;9.422;2022-08-21T07:28:15;28.50;99.90
4787;DHT22;62338;48.832;9.422;2022-08-21T07:30:17;29.00;99.90
4787;DHT22;62338;48.832;9.422;2022-08-21T07:32:19;29.50;99.90
4787;DHT22;62338;48.832;9.422;2022-08-21T07:34:22;29.30;99.90
4787;DHT22;62338;48.832;9.422;2022-08-21T07:36:23;29.20;93.60
4787;DHT22;62338;48.832;9.422;2022-08-21T07:38:25;28.90;91.80
4787;DHT22;62338;48.832;9.422;2022-08-21T07:40:28;29.10;62.30
4787;DHT22;62338;48.832;9.422;2022-08-21T07:42:30;29.30;91.40
4787;DHT22;62338;48.832;9.422;2022-08-21T07:44:32;29.80;75.90
4787;DHT22;62338;48.832;9.422;2022-08-21T07:46:35;29.90;40.20
4787;DHT22;62338;48.832;9.422;2022-08-21T07:48:37;29.70;25.90
4787;DHT22;62338;48.832;9.422;2022-08-21T07:50:39;29.50;24.30
4787;DHT22;62338;48.832;9.422;2022-08-21T07:52:42;29.70;12.10
4787;DHT22;62338;48.832;9.422;2022-08-21T07:54:44;30.00;12.60
4787;DHT22;62338;48.832;9.422;2022-08-21T07:56:46;30.30;1.00
4787;DHT22;62338;48.832;9.422;2022-08-21T07:58:48;30.30;5.70
4787;DHT22;62338;48.832;9.422;2022-08-21T08:00:50;30.20;1.00
4787;DHT22;62338;48.832;9.422;2022-08-21T08:02:53;29.90;1.00
4787;DHT22;62338;48.832;9.422;2022-08-21T08:05:00;30.00;2.00
4787;DHT22;62338;48.832;9.422;2022-08-21T08:07:02;30.40;1.00
4787;DHT22;62338;48.832;9.422;2022-08-21T08:09:04;30.20;9.20
4787;DHT22;62338;48.832;9.422;2022-08-21T08:11:06;30.20;1.00
4787;DHT22;62338;48.832;9.422;2022-08-21T08:13:09;30.00;1.00
4787;DHT22;62338;48.832;9.422;2022-08-21T08:15:15;30.10;1.00
4787;DHT22;62338;48.832;9.422;2022-08-21T08:17:17;30.20;1.00
4787;DHT22;62338;48.832;9.422;2022-08-21T08:19:23;30.30;1.00
4787;DHT22;62338;48.832;9.422;2022-08-21T08:21:25;30.10;1.00
4787;DHT22;62338;48.832;9.422;2022-08-21T08:23:27;30.30;1.00
4787;DHT22;62338;48.832;9.422;2022-08-21T08:25:29;30.20;1.00
4787;DHT22;62338;48.832;9.422;2022-08-21T08:27:37;30.60;1.00
4787;DHT22;62338;48.832;9.422;2022-08-21T08:29:39;30.90;1.00
4787;DHT22;62338;48.832;9.422;2022-08-21T08:31:41;30.90;1.00
4787;DHT22;62338;48.832;9.422;2022-08-21T08:33:42;30.60;1.00
4787;DHT22;62338;48.832;9.422;2022-08-21T08:35:46;30.40;1.00
4787;DHT22;62338;48.832;9.422;2022-08-21T08:37:49;30.00;1.00
4787;DHT22;62338;48.832;9.422;2022-08-21T08:39:53;30.30;1.00
4787;DHT22;62338;48.832;9.422;2022-08-21T08:42:17;30.90;1.00
4787;DHT22;62338;48.832;9.422;2022-08-21T08:44:34;31.30;1.00
4787;DHT22;62338;48.832;9.422;2022-08-21T08:46:41;31.10;1.00
4787;DHT22;62338;48.832;9.422;2022-08-21T08:49:06;30.80;1.00
4787;DHT22;62338;48.832;9.422;2022-08-21T08:51:17;30.90;1.00
4787;DHT22;62338;48.832;9.422;2022-08-21T08:53:31;31.00;1.00
4787;DHT22;62338;48.832;9.422;2022-08-21T08:55:42;31.60;1.00
4787;DHT22;62338;48.832;9.422;2022-08-21T08:57:47;31.40;1.00
4787;DHT22;62338;48.832;9.422;2022-08-21T08:59:53;31.30;1.00
4787;DHT22;62338;48.832;9.422;2022-08-21T09:01:56;31.70;1.00
4787;DHT22;62338;48.832;9.422;2022-08-21T09:03:58;31.90;1.00
4787;DHT22;62338;48.832;9.422;2022-08-21T09:08:50;32.10;1.00
4787;DHT22;62338;48.832;9.422;2022-08-21T09:16:13;31.70;1.00
4787;DHT22;62338;48.832;9.422;2022-08-21T09:25:46;33.20;1.00
4787;DHT22;62338;48.832;9.422;2022-08-21T09:27:50;33.30;1.00
4787;DHT22;62338;48.832;9.422;2022-08-21T09:29:54;33.10;1.00
4787;DHT22;62338;48.832;9.422;2022-08-21T09:31:56;32.70;1.00
4787;DHT22;62338;48.832;9.422;2022-08-21T09:34:04;32.60;1.00
4787;DHT22;62338;48.832;9.422;2022-08-21T09:36:06;33.00;1.00
4787;DHT22;62338;48.832;9.422;2022-08-21T09:38:08;33.30;1.00
4787;DHT22;62338;48.832;9.422;2022-08-21T09:42:36;34.00;1.00
4787;DHT22;62338;48.832;9.422;2022-08-21T09:44:40;33.70;1.00
4787;DHT22;62338;48.832;9.422;2022-08-21T09:46:50;33.50;1.00
4787;DHT22;62338;48.832;9.422;2022-08-21T09:48:56;33.60;1.00
4787;DHT22;62338;48.832;9.422;2022-08-21T09:51:08;33.80;1.00
4787;DHT22;62338;48.832;9.422;2022-08-21T09:55:39;31.30;1.00
4787;DHT22;62338;48.832;9.422;2022-08-21T09:58:08;30.90;1.00
4787;DHT22;62338;48.832;9.422;2022-08-21T10:00:26;30.90;1.00
4787;DHT22;62338;48.832;9.422;2022-08-21T10:02:31;31.40;1.00
4787;DHT22;62338;48.832;9.422;2022-08-21T10:04:35;30.80;1.00
4787;DHT22;62338;48.832;9.422;2022-08-21T10:06:37;30.30;1.00
4787;DHT22;62338;48.832;9.422;2022-08-21T10:08:40;30.70;1.00
4787;DHT22;62338;48.832;9.422;2022-08-21T10:10:42;31.50;1.00
4787;DHT22;62338;48.832;9.422;2022-08-21T10:15:10;33.10;1.00
4787;DHT22;62338;48.832;9.422;2022-08-21T10:17:17;32.40;1.00
4787;DHT22;62338;48.832;9.422;2022-08-21T10:19:28;31.70;1.00
4787;DHT22;62338;48.832;9.422;2022-08-21T10:26:39;27.90;1.00
4787;DHT22;62338;48.832;9.422;2022-08-21T10:33:25;27.10;1.00
4787;DHT22;62338;48.832;9.422;2022-08-21T10:35:30;27.20;1.00
4787;DHT22;62338;48.832;9.422;2022-08-21T10:40:29;27.20;1.00
4787;DHT22;62338;48.832;9.422;2022-08-21T10:42:38;27.80;1.00
4787;DHT22;62338;48.832;9.422;2022-08-21T10:45:11;27.40;1.00
4787;DHT22;62338;48.832;9.422;2022-08-21T10:56:29;25.60;1.00
4787;DHT22;62338;48.832;9.422;2022-08-21T10:58:51;25.40;1.00
4787;DHT22;62338;48.832;9.422;2022-08-21T11:01:20;25.10;1.00
4787;DHT22;62338;48.832;9.422;2022-08-21T11:03:39;24.90;1.00
4787;DHT22;62338;48.832;9.422;2022-08-21T11:05:48;25.00;99.90
4787;DHT22;62338;48.832;9.422;2022-08-21T11:08:03;26.20;99.60
4787;DHT22;62338;48.832;9.422;2022-08-21T11:10:16;27.90;1.00
4787;DHT22;62338;48.832;9.422;2022-08-21T11:12:24;28.60;1.00
4787;DHT22;62338;48.832;9.422;2022-08-21T11:17:10;31.30;1.00
4787;DHT22;62338;48.832;9.422;2022-08-21T11:20:03;32.20;1.00
4787;DHT22;62338;48.832;9.422;2022-08-21T11:21:52;32.40;1.00
4787;DHT22;62338;48.832;9.422;2022-08-21T11:26:15;31.20;1.00
4787;DHT22;62338;48.832;9.422;2022-08-21T11:28:26;30.80;1.00
4787;DHT22;62338;48.832;9.422;2022-08-21T11:35:48;29.10;1.00
4787;DHT22;62338;48.832;9.422;2022-08-21T11:38:01;28.30;1.00
4787;DHT22;62338;48.832;9.422;2022-08-21T11:40:51;27.50;1.00
4787;DHT22;62338;48.832;9.422;2022-08-21T11:45:17;29.10;1.00
4787;DHT22;62338;48.832;9.422;2022-08-21T11:47:56;29.90;1.00
4787;DHT22;62338;48.832;9.422;2022-08-21T11:50:17;31.30;1.00
4787;DHT22;62338;48.832;9.422;2022-08-21T11:52:39;32.30;1.00
4787;DHT22;62338;48.832;9.422;2022-08-21T11:56:51;32.70;1.00
4787;DHT22;62338;48.832;9.422;2022-08-21T11:58:58;33.00;1.00
4787;DHT22;62338;48.832;9.422;2022-08-21T12:01:09;32.50;1.00
4787;DHT22;62338;48.832;9.422;2022-08-21T12:03:36;33.00;1.00
4787;DHT22;62338;48.832;9.422;2022-08-21T12:05:52;33.60;1.00
4787;DHT22;62338;48.832;9.422;2022-08-21T12:08:09;32.50;1.00
4787;DHT22;62338;48.832;9.422;2022-08-21T12:10:16;30.60;1.00
4787;DHT22;62338;48.832;9.422;2022-08-21T12:12:34;29.70;1.00
4787;DHT22;62338;48.832;9.422;2022-08-21T12:14:42;30.40;1.00
4787;DHT22;62338;48.832;9.422;2022-08-21T12:16:49;31.00;1.00
4787;DHT22;62338;48.832;9.422;2022-08-21T12:19:44;31.30;1.00
4787;DHT22;62338;48.832;9.422;2022-08-21T12:21:27;31.60;1.00
4787;DHT22;62338;48.832;9.422;2022-08-21T12:23:49;32.20;1.00
4787;DHT22;62338;48.832;9.422;2022-08-21T12:26:10;33.30;1.00
4787;DHT22;62338;48.832;9.422;2022-08-21T12:28:22;33.30;1.00
4787;DHT22;62338;48.832;9.422;2022-08-21T12:32:57;34.00;1.00
4787;DHT22;62338;48.832;9.422;2022-08-21T12:35:20;33.90;1.00
4787;DHT22;62338;48.832;9.422;2022-08-21T12:37:40;33.50;1.00
4787;DHT22;62338;48.832;9.422;2022-08-21T12:39:44;33.30;1.00
4787;DHT22;62338;48.832;9.422;2022-08-21T12:44:21;34.90;1.00
4787;DHT22;62338;48.832;9.422;2022-08-21T12:46:35;35.30;1.00
4787;DHT22;62338;48.832;9.422;2022-08-21T12:48:52;35.60;1.00
4787;DHT22;62338;48.832;9.422;2022-08-21T12:51:03;35.50;1.00
4787;DHT22;62338;48.832;9.422;2022-08-21T12:53:13;35.70;1.00
4787;DHT22;62338;48.832;9.422;2022-08-21T12:55:28;35.80;1.00
4787;DHT22;62338;48.832;9.422;2022-08-21T12:57:30;36.30;1.00
4787;DHT22;62338;48.832;9.422;2022-08-21T12:59:36;36.50;1.00
4787;DHT22;62338;48.832;9.422;2022-08-21T13:01:45;36.50;1.00
4787;DHT22;62338;48.832;9.422;2022-08-21T13:03:50;36.70;1.00
4787;DHT22;62338;48.832;9.422;2022-08-21T13:06:06;37.10;1.00
4787;DHT22;62338;48.832;9.422;2022-08-21T13:08:11;36.70;1.00
4787;DHT22;62338;48.832;9.422;2022-08-21T13:10:21;36.30;1.00
4787;DHT22;62338;48.832;9.422;2022-08-21T13:12:25;36.30;1.00
4787;DHT22;62338;48.832;9.422;2022-08-21T13:14:40;36.10;1.00
4787;DHT22;62338;48.832;9.422;2022-08-21T13:16:47;35.90;1.00
4787;DHT22;62338;48.832;9.422;2022-08-21T13:18:57;35.30;1.00
4787;DHT22;62338;48.832;9.422;2022-08-21T13:21:14;35.90;1.00
4787;DHT22;62338;48.832;9.422;2022-08-21T13:23:27;35.70;1.00
4787;DHT22;62338;48.832;9.422;2022-08-21T13:25:35;35.80;1.00
4787;DHT22;62338;48.832;9.422;2022-08-21T13:27:37;36.10;1.00
4787;DHT22;62338;48.832;9.422;2022-08-21T13:29:39;36.20;1.00
4787;DHT22;62338;48.832;9.422;2022-08-21T13:31:51;36.30;1.00
4787;DHT22;62338;48.832;9.422;2022-08-21T13:33:55;35.50;1.00
4787;DHT22;62338;48.832;9.422;2022-08-21T13:37:59;35.10;1.00
4787;DHT22;62338;48.832;9.422;2022-08-21T13:40:01;35.50;1.00
4787;DHT22;62338;48.832;9.422;2022-08-21T13:42:04;35.20;1.00
4787;DHT22;62338;48.832;9.422;2022-08-21T13:44:32;34.60;1.00
4787;DHT22;62338;48.832;9.422;2022-08-21T13:46:36;34.30;1.00
4787;DHT22;62338;48.832;9.422;2022-08-21T13:48:38;34.10;1.00
4787;DHT22;62338;48.832;9.422;2022-08-21T13:50:40;34.10;1.00
4787;DHT22;62338;48.832;9.422;2022-08-21T13:55:24;33.40;1.00
4787;DHT22;62338;48.832;9.422;2022-08-21T13:57:32;33.70;1.00
4787;DHT22;62338;48.832;9.422;2022-08-21T13:59:35;34.50;1.00
4787;DHT22;62338;48.832;9.422;2022-08-21T14:01:52;34.80;1.00
4787;DHT22;62338;48.832;9.422;2022-08-21T14:04:06;34.30;1.00
4787;DHT22;62338;48.832;9.422;2022-08-21T14:06:17;34.40;1.00
4787;DHT22;62338;48.832;9.422;2022-08-21T14:08:50;34.40;1.00
4787;DHT22;62338;48.832;9.422;2022-08-21T14:10:53;34.30;1.00
4787;DHT22;62338;48.832;9.422;2022-08-21T14:13:01;34.10;1.00
4787;DHT22;62338;48.832;9.422;2022-08-21T14:15:04;34.10;1.00
4787;DHT22;62338;48.832;9.422;2022-08-21T14:17:10;34.40;1.00
4787;DHT22;62338;48.832;9.422;2022-08-21T14:19:35;34.50;1.00
4787;DHT22;62338;48.832;9.422;2022-08-21T14:21:41;34.20;1.00
4787;DHT22;62338;48.832;9.422;2022-08-21T14:23:45;34.10;1.00
4787;DHT22;62338;48.832;9.422;2022-08-21T14:25:46;34.20;1.00
4787;DHT22;62338;48.832;9.422;2022-08-21T14:30:18;34.20;1.00
4787;DHT22;62338;48.832;9.422;2022-08-21T14:32:22;34.10;1.00
4787;DHT22;62338;48.832;9.422;2022-08-21T14:34:28;34.10;1.00
4787;DHT22;62338;48.832;9.422;2022-08-21T14:36:36;33.90;1.00
4787;DHT22;62338;48.832;9.422;2022-08-21T14:38:39;33.80;1.00
4787;DHT22;62338;48.832;9.422;2022-08-21T14:40:43;33.70;1.00
4787;DHT22;62338;48.832;9.422;2022-08-21T14:42:45;33.60;1.00
4787;DHT22;62338;48.832;9.422;2022-08-21T14:44:47;33.20;1.00
4787;DHT22;62338;48.832;9.422;2022-08-21T14:46:49;33.10;1.00
4787;DHT22;62338;48.832;9.422;2022-08-21T14:48:57;33.00;1.00
4787;DHT22;62338;48.832;9.422;2022-08-21T14:50:59;33.20;1.00
4787;DHT22;62338;48.832;9.422;2022-08-21T14:53:01;33.30;1.00
4787;DHT22;62338;48.832;9.422;2022-08-21T14:55:12;33.50;1.00
4787;DHT22;62338;48.832;9.422;2022-08-21T14:57:17;33.30;1.00
4787;DHT22;62338;48.832;9.422;2022-08-21T14:59:20;33.60;1.00
4787;DHT22;62338;48.832;9.422;2022-08-21T15:01:22;33.50;1.00
4787;DHT22;62338;48.832;9.422;2022-08-21T15:03:25;33.00;1.00
4787;DHT22;62338;48.832;9.422;2022-08-21T15:05:27;32.80;1.00
4787;DHT22;62338;48.832;9.422;2022-08-21T15:07:34;32.60;1.00
4787;DHT22;62338;48.832;9.422;2022-08-21T15:09:36;32.60;1.00
4787;DHT22;62338;48.832;9.422;2022-08-21T15:11:37;32.10;1.00
4787;DHT22;62338;48.832;9.422;2022-08-21T15:13:43;31.90;1.00
4787;DHT22;62338;48.832;9.422;2022-08-21T15:15:47;31.60;1.00
4787;DHT22;62338;48.832;9.422;2022-08-21T15:17:49;31.70;1.00
4787;DHT22;62338;48.832;9.422;2022-08-21T15:19:51;32.00;1.00
4787;DHT22;62338;48.832;9.422;2022-08-21T15:21:53;32.20;1.00
4787;DHT22;62338;48.832;9.422;2022-08-21T15:23:55;32.00;1.00
4787;DHT22;62338;48.832;9.422;2022-08-21T15:25:56;32.00;1.00
4787;DHT22;62338;48.832;9.422;2022-08-21T15:28:03;31.60;1.00
4787;DHT22;62338;48.832;9.422;2022-08-21T15:30:06;31.90;1.00
4787;DHT22;62338;48.832;9.422;2022-08-21T15:32:25;31.90;1.00
4787;DHT22;62338;48.832;9.422;2022-08-21T15:34:29;31.70;1.00
4787;DHT22;62338;48.832;9.422;2022-08-21T15:36:31;31.40;1.00
4787;DHT22;62338;48.832;9.422;2022-08-21T15:38:33;31.70;1.00
4787;DHT22;62338;48.832;9.422;2022-08-21T15:40:35;32.10;1.00
4787;DHT22;62338;48.832;9.422;2022-08-21T15:42:39;32.20;1.00
4787;DHT22;62338;48.832;9.422;2022-08-21T15:44:42;32.20;1.00
4787;DHT22;62338;48.832;9.422;2022-08-21T15:46:44;32.20;1.00
4787;DHT22;62338;48.832;9.422;2022-08-21T15:48:46;32.10;1.00
4787;DHT22;62338;48.832;9.422;2022-08-21T15:50:48;32.00;1.00
4787;DHT22;62338;48.832;9.422;2022-08-21T15:52:50;31.80;1.00
4787;DHT22;62338;48.832;9.422;2022-08-21T15:54:52;31.40;1.00
4787;DHT22;62338;48.832;9.422;2022-08-21T15:56:54;31.00;1.00
4787;DHT22;62338;48.832;9.422;2022-08-21T15:59:04;30.50;1.00
4787;DHT22;62338;48.832;9.422;2022-08-21T16:01:08;30.40;1.00
4787;DHT22;62338;48.832;9.422;2022-08-21T16:03:12;30.40;1.00
4787;DHT22;62338;48.832;9.422;2022-08-21T16:05:17;30.50;1.00
4787;DHT22;62338;48.832;9.422;2022-08-21T16:07:20;30.80;1.00
4787;DHT22;62338;48.832;9.422;2022-08-21T16:09:22;31.00;1.00
4787;DHT22;62338;48.832;9.422;2022-08-21T16:11:24;31.10;1.00
4787;DHT22;62338;48.832;9.422;2022-08-21T16:13:29;31.10;1.00
4787;DHT22;62338;48.832;9.422;2022-08-21T16:15:33;31.30;1.00
4787;DHT22;62338;48.832;9.422;2022-08-21T16:17:36;31.60;1.00
4787;DHT22;62338;48.832;9.422;2022-08-21T16:19:38;31.80;1.00
4787;DHT22;62338;48.832;9.422;2022-08-21T16:21:41;31.80;1.00
4787;DHT22;62338;48.832;9.422;2022-08-21T16:23:43;31.60;1.00
4787;DHT22;62338;48.832;9.422;2022-08-21T16:25:45;31.10;1.00
4787;DHT22;62338;48.832;9.422;2022-08-21T16:27:50;30.90;1.00
4787;DHT22;62338;48.832;9.422;2022-08-21T16:30:00;30.50;1.00
4787;DHT22;62338;48.832;9.422;2022-08-21T16:32:04;29.90;1.00
4787;DHT22;62338;48.832;9.422;2022-08-21T16:34:06;29.10;1.00
4787;DHT22;62338;48.832;9.422;2022-08-21T16:36:16;28.60;1.00
4787;DHT22;62338;48.832;9.422;2022-08-21T16:38:18;28.20;1.00
4787;DHT22;62338;48.832;9.422;2022-08-21T16:40:21;27.80;1.00
4787;DHT22;62338;48.832;9.422;2022-08-21T16:42:24;27.40;1.00
4787;DHT22;62338;48.832;9.422;2022-08-21T16:44:26;27.10;1.00
4787;DHT22;62338;48.832;9.422;2022-08-21T16:46:35;26.80;1.00
4787;DHT22;62338;48.832;9.422;2022-08-21T16:48:40;26.60;1.00
4787;DHT22;62338;48.832;9.422;2022-08-21T16:50:42;26.40;1.00
4787;DHT22;62338;48.832;9.422;2022-08-21T16:52:50;26.30;1.00
4787;DHT22;62338;48.832;9.422;2022-08-21T16:54:52;26.10;1.00
4787;DHT22;62338;48.832;9.422;2022-08-21T16:56:54;25.90;1.00
4787;DHT22;62338;48.832;9.422;2022-08-21T16:58:57;25.90;1.00
4787;DHT22;62338;48.832;9.422;2022-08-21T17:01:03;25.90;1.00
4787;DHT22;62338;48.832;9.422;2022-08-21T17:03:06;25.80;1.00
4787;DHT22;62338;48.832;9.422;2022-08-21T17:05:14;25.90;1.00
4787;DHT22;62338;48.832;9.422;2022-08-21T17:07:16;25.90;1.00
4787;DHT22;62338;48.832;9.422;2022-08-21T17:09:17;26.10;1.00
4787;DHT22;62338;48.832;9.422;2022-08-21T17:11:35;26.20;1.00
4787;DHT22;62338;48.832;9.422;2022-08-21T17:13:39;26.30;1.00
4787;DHT22;62338;48.832;9.422;2022-08-21T17:15:41;26.70;1.00
4787;DHT22;62338;48.832;9.422;2022-08-21T17:17:43;27.00;1.00
4787;DHT22;62338;48.832;9.422;2022-08-21T17:19:45;27.30;1.00
4787;DHT22;62338;48.832;9.422;2022-08-21T17:21:47;27.40;1.00
4787;DHT22;62338;48.832;9.422;2022-08-21T17:23:49;27.50;1.00
4787;DHT22;62338;48.832;9.422;2022-08-21T17:25:53;27.50;1.00
4787;DHT22;62338;48.832;9.422;2022-08-21T17:27:55;27.50;1.00
4787;DHT22;62338;48.832;9.422;2022-08-21T17:29:58;27.60;1.00
4787;DHT22;62338;48.832;9.422;2022-08-21T17:31:59;27.60;1.00
4787;DHT22;62338;48.832;9.422;2022-08-21T17:34:02;27.50;1.00
4787;DHT22;62338;48.832;9.422;2022-08-21T17:36:05;27.30;1.00
4787;DHT22;62338;48.832;9.422;2022-08-21T17:38:08;27.20;1.00
4787;DHT22;62338;48.832;9.422;2022-08-21T17:40:16;27.00;1.00
4787;DHT22;62338;48.832;9.422;2022-08-21T17:42:18;26.80;1.00
4787;DHT22;62338;48.832;9.422;2022-08-21T17:44:20;26.50;1.00
4787;DHT22;62338;48.832;9.422;2022-08-21T17:46:25;26.30;1.00
4787;DHT22;62338;48.832;9.422;2022-08-21T17:48:28;26.00;1.00
4787;DHT22;62338;48.832;9.422;2022-08-21T17:50:30;25.50;1.00
4787;DHT22;62338;48.832;9.422;2022-08-21T17:52:31;25.00;1.00
4787;DHT22;62338;48.832;9.422;2022-08-21T17:54:34;24.50;1.00
4787;DHT22;62338;48.832;9.422;2022-08-21T17:56:41;24.00;1.00
4787;DHT22;62338;48.832;9.422;2022-08-21T17:58:48;23.60;1.00
4787;DHT22;62338;48.832;9.422;2022-08-21T18:00:50;23.20;1.00
4787;DHT22;62338;48.832;9.422;2022-08-21T18:03:09;22.90;1.00
4787;DHT22;62338;48.832;9.422;2022-08-21T18:05:15;22.50;1.00
4787;DHT22;62338;48.832;9.422;2022-08-21T18:07:17;22.20;1.00
4787;DHT22;62338;48.832;9.422;2022-08-21T18:09:33;22.00;1.00
4787;DHT22;62338;48.832;9.422;2022-08-21T18:11:35;21.70;1.00
4787;DHT22;62338;48.832;9.422;2022-08-21T18:13:39;21.60;1.00
4787;DHT22;62338;48.832;9.422;2022-08-21T18:15:43;21.40;1.00
4787;DHT22;62338;48.832;9.422;2022-08-21T18:17:48;21.20;1.00
4787;DHT22;62338;48.832;9.422;2022-08-21T18:19:51;21.00;1.00
4787;DHT22;62338;48.832;9.422;2022-08-21T18:21:54;20.90;1.00
4787;DHT22;62338;48.832;9.422;2022-08-21T18:23:56;20.80;1.00
4787;DHT22;62338;48.832;9.422;2022-08-21T18:25:58;20.70;1.00
4787;DHT22;62338;48.832;9.422;2022-08-21T18:28:05;20.60;1.00
4787;DHT22;62338;48.832;9.422;2022-08-21T18:30:08;20.50;1.00
4787;DHT22;62338;48.832;9.422;2022-08-21T18:32:10;20.40;1.00
4787;DHT22;62338;48.832;9.422;2022-08-21T18:34:36;20.30;1.00
4787;DHT22;62338;48.832;9.422;2022-08-21T18:36:39;20.20;1.00
4787;DHT22;62338;48.832;9.422;2022-08-21T18:38:41;20.10;1.00
4787;DHT22;62338;48.832;9.422;2022-08-21T18:40:45;20.00;1.00
4787;DHT22;62338;48.832;9.422;2022-08-21T18:42:47;20.00;1.00
4787;DHT22;62338;48.832;9.422;2022-08-21T18:45:01;19.90;1.00
4787;DHT22;62338;48.832;9.422;2022-08-21T18:47:09;19.80;1.00
4787;DHT22;62338;48.832;9.422;2022-08-21T18:49:12;19.80;1.00
4787;DHT22;62338;48.832;9.422;2022-08-21T18:51:14;19.70;1.00
4787;DHT22;62338;48.832;9.422;2022-08-21T18:53:16;19.70;1.00
4787;DHT22;62338;48.832;9.422;2022-08-21T18:55:29;19.60;1.00
4787;DHT22;62338;48.832;9.422;2022-08-21T18:57:31;19.60;1.00
4787;DHT22;62338;48.832;9.422;2022-08-21T18:59:34;19.50;1.00
4787;DHT22;62338;48.832;9.422;2022-08-21T19:01:37;19.50;1.00
4787;DHT22;62338;48.832;9.422;2022-08-21T19:03:40;19.50;1.00
4787;DHT22;62338;48.832;9.422;2022-08-21T19:05:43;19.40;1.00